KCCB/CCB METAR and TAF weather

Enter ICAO airport designator
Station Type Date Time Source
KCCB METAR 2019/04/25 21:55 UTC NOAA

KCCB 252155Z AUTO 27010G15KT 10SM CLR 28/09 A2996 RMK AO2


Station Type Date Time Source
KCCB Decoded METAR 2019/04/25 21:55 UTC NOAA

Station name not available
Apr 25, 2019 - 05:55 PM EDT / 2019.04.25 2155 UTC
Wind: from the W (270 degrees) at 12 MPH (10 KT) gusting to 17 MPH (15 KT):0
Visibility: 10 mile(s):0
Sky conditions: clear
Temperature: 82 F (28 C)
Dew Point: 48 F (9 C)
Relative Humidity: 30%
Pressure (altimeter): 29.96 in. Hg (1014 hPa)
ob: KCCB 252155Z AUTO 27010G15KT 10SM CLR 28/09 A2996 RMK AO2
cycle: 22

Station Type Date Time Source
KCCB TAF UTC NOAA

Error!

Example: see airport list